Terminal Aerodrome Forecast
Issued by NWS

Home | Current Version | Previous Version | Text Only | Print | Product List | Glossary On
Versions: 1 2 3 4 5 6 7 8 9 10 11 12 13 14 15 16 17 18
000
FTUS46 KSEW 231700
TAFBFI
TAF
KBFI 231728Z 2318/2418 21006KT P6SM -RA SCT008 BKN017 OVC045
      TEMPO 2318/2321 4SM -RA BR BKN007 OVC040
     FM232100 22007KT P6SM -SHRA VCTS SCT020 BKN030CB OVC050
     FM240300 20008KT P6SM VCSH SCT020 BKN030=

USA.gov is the U.S. government's official web portal to all federal, state and local government web resources and services.